sensor_id;sensor_type;location;lat;lon;timestamp;P1;durP1;ratioP1;P2;durP2;ratioP2
1320;SDS011;653;51.480;11.992;2022-08-19T00:01:46;35.97;;;32.27;;
1320;SDS011;653;51.480;11.992;2022-08-19T00:04:15;34.87;;;31.00;;
1320;SDS011;653;51.480;11.992;2022-08-19T00:06:42;35.33;;;31.50;;
1320;SDS011;653;51.480;11.992;2022-08-19T00:09:12;34.27;;;30.90;;
1320;SDS011;653;51.480;11.992;2022-08-19T00:11:42;33.80;;;30.10;;
1320;SDS011;653;51.480;11.992;2022-08-19T00:14:09;33.83;;;30.33;;
1320;SDS011;653;51.480;11.992;2022-08-19T00:16:37;36.07;;;32.33;;
1320;SDS011;653;51.480;11.992;2022-08-19T00:19:05;38.00;;;31.13;;
1320;SDS011;653;51.480;11.992;2022-08-19T00:21:32;38.10;;;34.00;;
1320;SDS011;653;51.480;11.992;2022-08-19T00:24:06;36.60;;;32.70;;
1320;SDS011;653;51.480;11.992;2022-08-19T00:26:35;41.40;;;34.77;;
1320;SDS011;653;51.480;11.992;2022-08-19T00:29:06;41.60;;;35.67;;
1320;SDS011;653;51.480;11.992;2022-08-19T00:31:35;41.93;;;37.37;;
1320;SDS011;653;51.480;11.992;2022-08-19T00:34:01;39.57;;;35.43;;
1320;SDS011;653;51.480;11.992;2022-08-19T00:36:29;42.50;;;37.27;;
1320;SDS011;653;51.480;11.992;2022-08-19T00:38:58;43.60;;;37.20;;
1320;SDS011;653;51.480;11.992;2022-08-19T00:41:25;46.33;;;39.10;;
1320;SDS011;653;51.480;11.992;2022-08-19T00:44:05;42.50;;;38.00;;
1320;SDS011;653;51.480;11.992;2022-08-19T00:46:37;43.97;;;37.90;;
1320;SDS011;653;51.480;11.992;2022-08-19T00:52:04;46.40;;;38.47;;
1320;SDS011;653;51.480;11.992;2022-08-19T00:54:39;46.00;;;40.03;;
1320;SDS011;653;51.480;11.992;2022-08-19T00:57:06;42.70;;;36.53;;
1320;SDS011;653;51.480;11.992;2022-08-19T00:59:35;45.50;;;37.97;;
1320;SDS011;653;51.480;11.992;2022-08-19T01:02:03;40.23;;;35.10;;
1320;SDS011;653;51.480;11.992;2022-08-19T01:04:30;41.57;;;37.00;;
1320;SDS011;653;51.480;11.992;2022-08-19T01:06:57;41.60;;;36.97;;
1320;SDS011;653;51.480;11.992;2022-08-19T01:09:24;42.63;;;38.03;;
1320;SDS011;653;51.480;11.992;2022-08-19T01:11:51;45.83;;;39.37;;
1320;SDS011;653;51.480;11.992;2022-08-19T01:14:16;44.70;;;38.60;;
1320;SDS011;653;51.480;11.992;2022-08-19T01:16:43;44.40;;;38.00;;
1320;SDS011;653;51.480;11.992;2022-08-19T01:19:33;43.50;;;39.00;;
1320;SDS011;653;51.480;11.992;2022-08-19T01:25:01;45.53;;;39.37;;
1320;SDS011;653;51.480;11.992;2022-08-19T01:27:26;41.37;;;37.07;;
1320;SDS011;653;51.480;11.992;2022-08-19T01:29:52;52.60;;;41.60;;
1320;SDS011;653;51.480;11.992;2022-08-19T01:32:19;44.77;;;38.63;;
1320;SDS011;653;51.480;11.992;2022-08-19T01:34:46;47.17;;;41.27;;
1320;SDS011;653;51.480;11.992;2022-08-19T01:37:14;48.00;;;38.90;;
1320;SDS011;653;51.480;11.992;2022-08-19T01:39:41;46.90;;;39.37;;
1320;SDS011;653;51.480;11.992;2022-08-19T01:42:07;48.90;;;40.37;;
1320;SDS011;653;51.480;11.992;2022-08-19T01:44:39;46.47;;;40.50;;
1320;SDS011;653;51.480;11.992;2022-08-19T01:47:08;51.23;;;41.67;;
1320;SDS011;653;51.480;11.992;2022-08-19T01:49:36;47.03;;;39.63;;
1320;SDS011;653;51.480;11.992;2022-08-19T01:52:03;46.80;;;40.50;;
1320;SDS011;653;51.480;11.992;2022-08-19T01:54:29;48.97;;;41.67;;
1320;SDS011;653;51.480;11.992;2022-08-19T01:56:58;52.57;;;43.90;;
1320;SDS011;653;51.480;11.992;2022-08-19T01:59:30;47.97;;;41.80;;
1320;SDS011;653;51.480;11.992;2022-08-19T02:02:00;53.87;;;44.80;;
1320;SDS011;653;51.480;11.992;2022-08-19T02:04:28;57.43;;;46.67;;
1320;SDS011;653;51.480;11.992;2022-08-19T02:06:56;50.07;;;44.57;;
1320;SDS011;653;51.480;11.992;2022-08-19T02:09:23;59.00;;;46.37;;
1320;SDS011;653;51.480;11.992;2022-08-19T02:11:49;55.77;;;45.23;;
1320;SDS011;653;51.480;11.992;2022-08-19T02:14:15;55.87;;;47.50;;
1320;SDS011;653;51.480;11.992;2022-08-19T02:16:42;55.67;;;46.50;;
1320;SDS011;653;51.480;11.992;2022-08-19T02:19:08;57.27;;;47.60;;
1320;SDS011;653;51.480;11.992;2022-08-19T02:21:33;58.23;;;47.73;;
1320;SDS011;653;51.480;11.992;2022-08-19T02:24:01;57.83;;;47.57;;
1320;SDS011;653;51.480;11.992;2022-08-19T02:26:29;62.57;;;50.53;;
1320;SDS011;653;51.480;11.992;2022-08-19T02:28:56;65.30;;;50.83;;
1320;SDS011;653;51.480;11.992;2022-08-19T02:31:24;64.47;;;50.43;;
1320;SDS011;653;51.480;11.992;2022-08-19T02:33:54;64.07;;;49.80;;
1320;SDS011;653;51.480;11.992;2022-08-19T02:36:21;63.43;;;50.10;;
1320;SDS011;653;51.480;11.992;2022-08-19T02:38:48;61.37;;;51.40;;
1320;SDS011;653;51.480;11.992;2022-08-19T02:41:18;64.13;;;51.73;;
1320;SDS011;653;51.480;11.992;2022-08-19T02:43:47;66.07;;;53.57;;
1320;SDS011;653;51.480;11.992;2022-08-19T02:46:22;65.90;;;51.53;;
1320;SDS011;653;51.480;11.992;2022-08-19T02:48:56;64.30;;;52.60;;
1320;SDS011;653;51.480;11.992;2022-08-19T02:51:25;64.17;;;51.93;;
1320;SDS011;653;51.480;11.992;2022-08-19T02:53:54;69.87;;;53.13;;
1320;SDS011;653;51.480;11.992;2022-08-19T02:56:22;64.93;;;52.37;;
1320;SDS011;653;51.480;11.992;2022-08-19T02:58:51;71.93;;;54.90;;
1320;SDS011;653;51.480;11.992;2022-08-19T03:01:22;62.90;;;53.13;;
1320;SDS011;653;51.480;11.992;2022-08-19T03:03:53;64.67;;;52.33;;
1320;SDS011;653;51.480;11.992;2022-08-19T03:06:21;65.57;;;53.70;;
1320;SDS011;653;51.480;11.992;2022-08-19T03:08:48;73.23;;;55.37;;
1320;SDS011;653;51.480;11.992;2022-08-19T03:11:22;72.10;;;55.60;;
1320;SDS011;653;51.480;11.992;2022-08-19T03:13:50;65.50;;;54.97;;
1320;SDS011;653;51.480;11.992;2022-08-19T03:16:16;63.67;;;55.07;;
1320;SDS011;653;51.480;11.992;2022-08-19T03:18:43;67.57;;;53.70;;
1320;SDS011;653;51.480;11.992;2022-08-19T03:21:08;64.77;;;55.97;;
1320;SDS011;653;51.480;11.992;2022-08-19T03:23:36;61.97;;;52.10;;
1320;SDS011;653;51.480;11.992;2022-08-19T03:26:05;62.17;;;55.37;;
1320;SDS011;653;51.480;11.992;2022-08-19T03:28:32;65.23;;;51.77;;
1320;SDS011;653;51.480;11.992;2022-08-19T03:31:06;60.90;;;51.07;;
1320;SDS011;653;51.480;11.992;2022-08-19T03:33:36;64.80;;;54.87;;
1320;SDS011;653;51.480;11.992;2022-08-19T03:36:08;62.33;;;54.20;;
1320;SDS011;653;51.480;11.992;2022-08-19T03:38:38;61.47;;;53.67;;
1320;SDS011;653;51.480;11.992;2022-08-19T03:41:08;59.20;;;50.00;;
1320;SDS011;653;51.480;11.992;2022-08-19T03:43:37;57.00;;;48.93;;
1320;SDS011;653;51.480;11.992;2022-08-19T03:46:05;60.77;;;51.97;;
1320;SDS011;653;51.480;11.992;2022-08-19T03:48:58;56.80;;;50.27;;
1320;SDS011;653;51.480;11.992;2022-08-19T03:51:31;56.97;;;50.87;;
1320;SDS011;653;51.480;11.992;2022-08-19T03:54:02;59.57;;;49.10;;
1320;SDS011;653;51.480;11.992;2022-08-19T03:56:32;56.83;;;49.97;;
1320;SDS011;653;51.480;11.992;2022-08-19T03:59:00;54.90;;;48.90;;
1320;SDS011;653;51.480;11.992;2022-08-19T04:01:28;55.87;;;49.30;;
1320;SDS011;653;51.480;11.992;2022-08-19T04:03:55;58.27;;;48.87;;
1320;SDS011;653;51.480;11.992;2022-08-19T04:06:25;50.80;;;45.37;;
1320;SDS011;653;51.480;11.992;2022-08-19T04:08:53;52.90;;;47.30;;
1320;SDS011;653;51.480;11.992;2022-08-19T04:11:25;51.60;;;46.10;;
1320;SDS011;653;51.480;11.992;2022-08-19T04:13:53;55.47;;;49.40;;
1320;SDS011;653;51.480;11.992;2022-08-19T04:16:21;54.93;;;48.60;;
1320;SDS011;653;51.480;11.992;2022-08-19T04:18:49;52.90;;;47.27;;
1320;SDS011;653;51.480;11.992;2022-08-19T04:21:18;54.40;;;48.50;;
1320;SDS011;653;51.480;11.992;2022-08-19T04:23:48;54.00;;;48.10;;
1320;SDS011;653;51.480;11.992;2022-08-19T04:26:16;54.73;;;48.60;;
1320;SDS011;653;51.480;11.992;2022-08-19T04:28:46;53.60;;;48.10;;
1320;SDS011;653;51.480;11.992;2022-08-19T04:31:13;54.30;;;48.50;;
1320;SDS011;653;51.480;11.992;2022-08-19T04:33:41;56.47;;;50.27;;
1320;SDS011;653;51.480;11.992;2022-08-19T04:36:15;58.17;;;47.73;;
1320;SDS011;653;51.480;11.992;2022-08-19T04:38:42;54.40;;;48.33;;
1320;SDS011;653;51.480;11.992;2022-08-19T04:41:08;55.17;;;48.60;;
1320;SDS011;653;51.480;11.992;2022-08-19T04:43:53;53.43;;;47.80;;
1320;SDS011;653;51.480;11.992;2022-08-19T04:46:18;54.50;;;48.53;;
1320;SDS011;653;51.480;11.992;2022-08-19T04:48:46;52.73;;;47.03;;
1320;SDS011;653;51.480;11.992;2022-08-19T04:51:13;53.97;;;48.00;;
1320;SDS011;653;51.480;11.992;2022-08-19T04:53:40;52.13;;;46.23;;
1320;SDS011;653;51.480;11.992;2022-08-19T04:56:11;53.70;;;45.97;;
1320;SDS011;653;51.480;11.992;2022-08-19T04:58:41;48.20;;;43.20;;
1320;SDS011;653;51.480;11.992;2022-08-19T05:01:13;50.47;;;44.80;;
1320;SDS011;653;51.480;11.992;2022-08-19T05:03:41;48.87;;;43.57;;
1320;SDS011;653;51.480;11.992;2022-08-19T05:06:09;48.20;;;41.37;;
1320;SDS011;653;51.480;11.992;2022-08-19T05:08:38;48.33;;;43.00;;
1320;SDS011;653;51.480;11.992;2022-08-19T05:11:11;44.80;;;40.17;;
1320;SDS011;653;51.480;11.992;2022-08-19T05:13:39;46.60;;;41.03;;
1320;SDS011;653;51.480;11.992;2022-08-19T05:16:05;47.20;;;42.10;;
1320;SDS011;653;51.480;11.992;2022-08-19T05:18:32;48.03;;;41.87;;
1320;SDS011;653;51.480;11.992;2022-08-19T05:21:17;41.43;;;37.03;;
1320;SDS011;653;51.480;11.992;2022-08-19T05:24:04;45.80;;;39.83;;
1320;SDS011;653;51.480;11.992;2022-08-19T05:26:39;42.47;;;38.07;;
1320;SDS011;653;51.480;11.992;2022-08-19T05:29:17;44.27;;;39.33;;
1320;SDS011;653;51.480;11.992;2022-08-19T05:32:06;42.93;;;38.23;;
1320;SDS011;653;51.480;11.992;2022-08-19T05:34:37;43.73;;;39.13;;
1320;SDS011;653;51.480;11.992;2022-08-19T05:37:05;44.93;;;39.77;;
1320;SDS011;653;51.480;11.992;2022-08-19T05:39:35;44.47;;;39.90;;
1320;SDS011;653;51.480;11.992;2022-08-19T05:42:07;43.83;;;39.13;;
1320;SDS011;653;51.480;11.992;2022-08-19T05:44:39;40.97;;;36.60;;
1320;SDS011;653;51.480;11.992;2022-08-19T05:47:15;44.97;;;39.73;;
1320;SDS011;653;51.480;11.992;2022-08-19T05:49:42;43.80;;;37.77;;
1320;SDS011;653;51.480;11.992;2022-08-19T05:52:11;41.90;;;37.53;;
1320;SDS011;653;51.480;11.992;2022-08-19T05:54:39;39.13;;;34.90;;
1320;SDS011;653;51.480;11.992;2022-08-19T05:57:06;42.63;;;38.00;;
1320;SDS011;653;51.480;11.992;2022-08-19T05:59:34;37.80;;;33.83;;
1320;SDS011;653;51.480;11.992;2022-08-19T06:02:03;37.57;;;33.40;;
1320;SDS011;653;51.480;11.992;2022-08-19T06:04:30;35.57;;;31.93;;
1320;SDS011;653;51.480;11.992;2022-08-19T06:06:55;33.77;;;30.37;;
1320;SDS011;653;51.480;11.992;2022-08-19T06:09:22;33.80;;;30.33;;
1320;SDS011;653;51.480;11.992;2022-08-19T06:11:53;32.63;;;29.33;;
1320;SDS011;653;51.480;11.992;2022-08-19T06:14:23;31.23;;;27.97;;
1320;SDS011;653;51.480;11.992;2022-08-19T06:16:51;30.27;;;26.97;;
1320;SDS011;653;51.480;11.992;2022-08-19T06:19:20;31.13;;;27.83;;
1320;SDS011;653;51.480;11.992;2022-08-19T06:21:48;28.30;;;25.30;;
1320;SDS011;653;51.480;11.992;2022-08-19T06:24:17;28.00;;;25.00;;
1320;SDS011;653;51.480;11.992;2022-08-19T06:26:55;27.17;;;24.53;;
1320;SDS011;653;51.480;11.992;2022-08-19T06:29:24;28.17;;;24.00;;
1320;SDS011;653;51.480;11.992;2022-08-19T06:31:53;27.30;;;24.40;;
1320;SDS011;653;51.480;11.992;2022-08-19T06:34:22;26.13;;;23.33;;
1320;SDS011;653;51.480;11.992;2022-08-19T06:36:50;26.23;;;23.63;;
1320;SDS011;653;51.480;11.992;2022-08-19T06:39:17;26.37;;;23.57;;
1320;SDS011;653;51.480;11.992;2022-08-19T06:41:45;25.43;;;22.83;;
1320;SDS011;653;51.480;11.992;2022-08-19T06:44:12;25.47;;;22.80;;
1320;SDS011;653;51.480;11.992;2022-08-19T06:46:38;24.97;;;22.43;;
1320;SDS011;653;51.480;11.992;2022-08-19T06:49:06;23.33;;;20.93;;
1320;SDS011;653;51.480;11.992;2022-08-19T06:51:44;25.67;;;22.97;;
1320;SDS011;653;51.480;11.992;2022-08-19T06:54:15;22.93;;;20.70;;
1320;SDS011;653;51.480;11.992;2022-08-19T06:56:42;23.93;;;21.43;;
1320;SDS011;653;51.480;11.992;2022-08-19T06:59:13;24.33;;;21.87;;
1320;SDS011;653;51.480;11.992;2022-08-19T07:01:49;24.57;;;22.07;;
1320;SDS011;653;51.480;11.992;2022-08-19T07:04:26;23.73;;;21.53;;
1320;SDS011;653;51.480;11.992;2022-08-19T07:07:03;23.07;;;20.87;;
1320;SDS011;653;51.480;11.992;2022-08-19T07:09:38;23.03;;;20.77;;
1320;SDS011;653;51.480;11.992;2022-08-19T07:12:08;23.97;;;21.53;;
1320;SDS011;653;51.480;11.992;2022-08-19T07:14:37;23.00;;;20.80;;
1320;SDS011;653;51.480;11.992;2022-08-19T07:17:06;24.77;;;20.90;;
1320;SDS011;653;51.480;11.992;2022-08-19T07:19:36;23.73;;;21.33;;
1320;SDS011;653;51.480;11.992;2022-08-19T07:22:03;23.33;;;20.93;;
1320;SDS011;653;51.480;11.992;2022-08-19T07:24:33;23.80;;;21.50;;
1320;SDS011;653;51.480;11.992;2022-08-19T07:27:00;24.37;;;21.87;;
1320;SDS011;653;51.480;11.992;2022-08-19T07:29:28;25.60;;;23.00;;
1320;SDS011;653;51.480;11.992;2022-08-19T07:31:56;24.07;;;21.57;;
1320;SDS011;653;51.480;11.992;2022-08-19T07:34:24;24.80;;;22.30;;
1320;SDS011;653;51.480;11.992;2022-08-19T07:36:52;26.40;;;23.70;;
1320;SDS011;653;51.480;11.992;2022-08-19T07:39:24;23.37;;;20.87;;
1320;SDS011;653;51.480;11.992;2022-08-19T07:41:53;22.70;;;20.50;;
1320;SDS011;653;51.480;11.992;2022-08-19T07:44:19;26.07;;;21.77;;
1320;SDS011;653;51.480;11.992;2022-08-19T07:46:48;24.63;;;22.20;;
1320;SDS011;653;51.480;11.992;2022-08-19T07:49:16;24.33;;;21.73;;
1320;SDS011;653;51.480;11.992;2022-08-19T07:51:46;24.30;;;21.80;;
1320;SDS011;653;51.480;11.992;2022-08-19T07:54:14;24.67;;;21.97;;
1320;SDS011;653;51.480;11.992;2022-08-19T07:56:41;25.13;;;21.57;;
1320;SDS011;653;51.480;11.992;2022-08-19T07:59:07;25.27;;;20.17;;
1320;SDS011;653;51.480;11.992;2022-08-19T08:01:35;21.90;;;19.20;;
1320;SDS011;653;51.480;11.992;2022-08-19T08:04:02;21.53;;;19.37;;
1320;SDS011;653;51.480;11.992;2022-08-19T08:07:07;27.53;;;21.43;;
1320;SDS011;653;51.480;11.992;2022-08-19T08:09:53;21.00;;;18.80;;
1320;SDS011;653;51.480;11.992;2022-08-19T08:12:25;23.20;;;20.20;;
1320;SDS011;653;51.480;11.992;2022-08-19T08:15:04;21.63;;;19.50;;
1320;SDS011;653;51.480;11.992;2022-08-19T08:17:34;22.97;;;20.57;;
1320;SDS011;653;51.480;11.992;2022-08-19T08:20:02;26.00;;;20.77;;
1320;SDS011;653;51.480;11.992;2022-08-19T08:22:48;22.20;;;19.93;;
1320;SDS011;653;51.480;11.992;2022-08-19T08:25:32;23.83;;;20.57;;
1320;SDS011;653;51.480;11.992;2022-08-19T08:28:01;22.17;;;19.20;;
1320;SDS011;653;51.480;11.992;2022-08-19T08:30:30;21.60;;;19.43;;
1320;SDS011;653;51.480;11.992;2022-08-19T08:32:58;22.00;;;18.30;;
1320;SDS011;653;51.480;11.992;2022-08-19T08:35:45;22.37;;;20.13;;
1320;SDS011;653;51.480;11.992;2022-08-19T08:38:11;21.70;;;19.60;;
1320;SDS011;653;51.480;11.992;2022-08-19T08:43:38;19.80;;;17.93;;
1320;SDS011;653;51.480;11.992;2022-08-19T08:46:13;23.23;;;18.47;;
1320;SDS011;653;51.480;11.992;2022-08-19T08:51:52;19.17;;;17.20;;
1320;SDS011;653;51.480;11.992;2022-08-19T08:54:24;20.00;;;17.90;;
1320;SDS011;653;51.480;11.992;2022-08-19T08:56:55;17.47;;;15.77;;
1320;SDS011;653;51.480;11.992;2022-08-19T08:59:24;18.50;;;16.70;;
1320;SDS011;653;51.480;11.992;2022-08-19T09:01:51;19.50;;;16.03;;
1320;SDS011;653;51.480;11.992;2022-08-19T09:04:20;18.30;;;16.40;;
1320;SDS011;653;51.480;11.992;2022-08-19T09:15:41;17.43;;;15.67;;
1320;SDS011;653;51.480;11.992;2022-08-19T09:18:11;17.83;;;16.03;;
1320;SDS011;653;51.480;11.992;2022-08-19T09:20:37;17.83;;;15.93;;
1320;SDS011;653;51.480;11.992;2022-08-19T09:23:02;19.00;;;16.20;;
1320;SDS011;653;51.480;11.992;2022-08-19T09:25:30;17.80;;;16.10;;
1320;SDS011;653;51.480;11.992;2022-08-19T09:27:58;19.27;;;16.53;;
1320;SDS011;653;51.480;11.992;2022-08-19T09:30:28;18.60;;;16.67;;
1320;SDS011;653;51.480;11.992;2022-08-19T09:32:57;17.73;;;15.80;;
1320;SDS011;653;51.480;11.992;2022-08-19T09:35:25;17.13;;;15.30;;
1320;SDS011;653;51.480;11.992;2022-08-19T09:37:52;18.07;;;16.33;;
1320;SDS011;653;51.480;11.992;2022-08-19T09:40:20;16.73;;;14.90;;
1320;SDS011;653;51.480;11.992;2022-08-19T09:42:46;16.93;;;14.27;;
1320;SDS011;653;51.480;11.992;2022-08-19T09:45:14;18.03;;;13.80;;
1320;SDS011;653;51.480;11.992;2022-08-19T09:47:42;16.93;;;15.23;;
1320;SDS011;653;51.480;11.992;2022-08-19T09:50:11;16.37;;;14.60;;
1320;SDS011;653;51.480;11.992;2022-08-19T09:52:38;17.80;;;14.90;;
1320;SDS011;653;51.480;11.992;2022-08-19T09:55:08;18.77;;;14.87;;
1320;SDS011;653;51.480;11.992;2022-08-19T09:57:38;17.33;;;15.57;;
1320;SDS011;653;51.480;11.992;2022-08-19T10:00:07;16.80;;;14.70;;
1320;SDS011;653;51.480;11.992;2022-08-19T10:02:39;18.50;;;14.77;;
1320;SDS011;653;51.480;11.992;2022-08-19T10:05:05;16.87;;;15.07;;
1320;SDS011;653;51.480;11.992;2022-08-19T10:07:52;15.27;;;13.80;;
1320;SDS011;653;51.480;11.992;2022-08-19T10:10:18;14.27;;;12.77;;
1320;SDS011;653;51.480;11.992;2022-08-19T10:12:45;13.60;;;12.20;;
1320;SDS011;653;51.480;11.992;2022-08-19T10:15:12;12.97;;;11.53;;
1320;SDS011;653;51.480;11.992;2022-08-19T10:17:39;16.57;;;12.80;;
1320;SDS011;653;51.480;11.992;2022-08-19T10:20:06;13.37;;;12.07;;
1320;SDS011;653;51.480;11.992;2022-08-19T10:22:32;14.27;;;12.80;;
1320;SDS011;653;51.480;11.992;2022-08-19T10:24:57;14.30;;;12.80;;
1320;SDS011;653;51.480;11.992;2022-08-19T10:27:23;14.33;;;12.80;;
1320;SDS011;653;51.480;11.992;2022-08-19T10:29:50;14.50;;;13.10;;
1320;SDS011;653;51.480;11.992;2022-08-19T10:32:15;15.33;;;12.90;;
1320;SDS011;653;51.480;11.992;2022-08-19T10:34:40;14.27;;;13.00;;
1320;SDS011;653;51.480;11.992;2022-08-19T10:37:06;15.70;;;14.10;;
1320;SDS011;653;51.480;11.992;2022-08-19T10:39:40;15.17;;;13.63;;
1320;SDS011;653;51.480;11.992;2022-08-19T10:42:12;14.70;;;13.20;;
1320;SDS011;653;51.480;11.992;2022-08-19T10:44:39;18.43;;;14.10;;
1320;SDS011;653;51.480;11.992;2022-08-19T10:47:08;18.23;;;13.30;;
1320;SDS011;653;51.480;11.992;2022-08-19T10:49:38;15.83;;;13.00;;
1320;SDS011;653;51.480;11.992;2022-08-19T10:52:30;13.17;;;12.07;;
1320;SDS011;653;51.480;11.992;2022-08-19T10:54:59;13.40;;;12.10;;
1320;SDS011;653;51.480;11.992;2022-08-19T10:57:46;12.60;;;11.33;;
1320;SDS011;653;51.480;11.992;2022-08-19T11:00:14;12.93;;;11.50;;
1320;SDS011;653;51.480;11.992;2022-08-19T11:02:41;12.50;;;11.23;;
1320;SDS011;653;51.480;11.992;2022-08-19T11:05:08;12.17;;;10.97;;
1320;SDS011;653;51.480;11.992;2022-08-19T11:07:41;12.97;;;11.47;;
1320;SDS011;653;51.480;11.992;2022-08-19T11:10:08;13.50;;;12.13;;
1320;SDS011;653;51.480;11.992;2022-08-19T11:12:37;14.43;;;11.67;;
1320;SDS011;653;51.480;11.992;2022-08-19T11:15:07;16.43;;;12.83;;
1320;SDS011;653;51.480;11.992;2022-08-19T11:17:40;13.77;;;12.47;;
1320;SDS011;653;51.480;11.992;2022-08-19T11:20:12;16.20;;;14.37;;
1320;SDS011;653;51.480;11.992;2022-08-19T11:22:39;22.73;;;16.23;;
1320;SDS011;653;51.480;11.992;2022-08-19T11:25:05;19.97;;;14.97;;
1320;SDS011;653;51.480;11.992;2022-08-19T11:27:32;24.60;;;17.77;;
1320;SDS011;653;51.480;11.992;2022-08-19T11:29:59;14.57;;;13.03;;
1320;SDS011;653;51.480;11.992;2022-08-19T11:32:27;14.63;;;13.23;;
1320;SDS011;653;51.480;11.992;2022-08-19T11:34:55;12.67;;;11.47;;
1320;SDS011;653;51.480;11.992;2022-08-19T11:37:21;15.90;;;14.40;;
1320;SDS011;653;51.480;11.992;2022-08-19T11:39:48;15.30;;;13.80;;
1320;SDS011;653;51.480;11.992;2022-08-19T11:42:14;13.50;;;11.93;;
1320;SDS011;653;51.480;11.992;2022-08-19T11:45:00;15.00;;;13.63;;
1320;SDS011;653;51.480;11.992;2022-08-19T11:47:25;15.10;;;13.60;;
1320;SDS011;653;51.480;11.992;2022-08-19T11:49:51;13.53;;;12.23;;
1320;SDS011;653;51.480;11.992;2022-08-19T11:52:19;16.13;;;13.30;;
1320;SDS011;653;51.480;11.992;2022-08-19T11:54:47;15.47;;;13.87;;
1320;SDS011;653;51.480;11.992;2022-08-19T11:57:14;16.33;;;14.63;;
1320;SDS011;653;51.480;11.992;2022-08-19T11:59:48;14.80;;;13.30;;
1320;SDS011;653;51.480;11.992;2022-08-19T12:02:18;15.10;;;13.80;;
1320;SDS011;653;51.480;11.992;2022-08-19T12:04:45;15.07;;;13.60;;
1320;SDS011;653;51.480;11.992;2022-08-19T12:07:10;15.40;;;13.90;;
1320;SDS011;653;51.480;11.992;2022-08-19T12:09:40;13.60;;;12.30;;
1320;SDS011;653;51.480;11.992;2022-08-19T12:12:07;14.10;;;12.80;;
1320;SDS011;653;51.480;11.992;2022-08-19T12:14:35;12.23;;;11.03;;
1320;SDS011;653;51.480;11.992;2022-08-19T12:17:02;15.57;;;13.97;;
1320;SDS011;653;51.480;11.992;2022-08-19T12:19:31;15.13;;;13.73;;
1320;SDS011;653;51.480;11.992;2022-08-19T12:22:00;13.97;;;12.67;;
1320;SDS011;653;51.480;11.992;2022-08-19T12:24:29;14.20;;;12.87;;
1320;SDS011;653;51.480;11.992;2022-08-19T12:26:58;14.03;;;12.47;;
1320;SDS011;653;51.480;11.992;2022-08-19T12:29:28;16.30;;;14.60;;
1320;SDS011;653;51.480;11.992;2022-08-19T12:31:56;14.20;;;12.80;;
1320;SDS011;653;51.480;11.992;2022-08-19T12:34:31;14.87;;;13.60;;
1320;SDS011;653;51.480;11.992;2022-08-19T12:36:59;15.07;;;13.37;;
1320;SDS011;653;51.480;11.992;2022-08-19T12:39:26;13.70;;;12.50;;
1320;SDS011;653;51.480;11.992;2022-08-19T12:41:53;13.63;;;12.30;;
1320;SDS011;653;51.480;11.992;2022-08-19T12:44:20;12.37;;;11.20;;
1320;SDS011;653;51.480;11.992;2022-08-19T12:46:48;14.37;;;12.93;;
1320;SDS011;653;51.480;11.992;2022-08-19T12:49:16;12.97;;;11.70;;
1320;SDS011;653;51.480;11.992;2022-08-19T12:51:42;12.57;;;11.37;;
1320;SDS011;653;51.480;11.992;2022-08-19T12:54:08;13.73;;;12.50;;
1320;SDS011;653;51.480;11.992;2022-08-19T12:56:35;12.97;;;11.77;;
1320;SDS011;653;51.480;11.992;2022-08-19T12:59:02;12.47;;;11.30;;
1320;SDS011;653;51.480;11.992;2022-08-19T13:01:28;14.77;;;13.30;;
1320;SDS011;653;51.480;11.992;2022-08-19T13:03:58;12.80;;;11.57;;
1320;SDS011;653;51.480;11.992;2022-08-19T13:06:27;15.10;;;11.97;;
1320;SDS011;653;51.480;11.992;2022-08-19T13:08:54;14.17;;;10.60;;
1320;SDS011;653;51.480;11.992;2022-08-19T13:11:20;12.43;;;11.20;;
1320;SDS011;653;51.480;11.992;2022-08-19T13:13:52;13.63;;;12.27;;
1320;SDS011;653;51.480;11.992;2022-08-19T13:16:20;12.70;;;11.40;;
1320;SDS011;653;51.480;11.992;2022-08-19T13:18:47;11.80;;;10.70;;
1320;SDS011;653;51.480;11.992;2022-08-19T13:21:16;12.67;;;11.37;;
1320;SDS011;653;51.480;11.992;2022-08-19T13:23:42;13.87;;;12.47;;
1320;SDS011;653;51.480;11.992;2022-08-19T13:26:09;15.47;;;13.83;;
1320;SDS011;653;51.480;11.992;2022-08-19T13:28:39;13.63;;;12.33;;
1320;SDS011;653;51.480;11.992;2022-08-19T13:31:27;17.97;;;16.23;;
1320;SDS011;653;51.480;11.992;2022-08-19T13:34:15;20.40;;;18.30;;
1320;SDS011;653;51.480;11.992;2022-08-19T13:36:42;18.47;;;16.03;;
1320;SDS011;653;51.480;11.992;2022-08-19T13:39:08;18.60;;;16.67;;
1320;SDS011;653;51.480;11.992;2022-08-19T13:41:34;19.77;;;17.67;;
1320;SDS011;653;51.480;11.992;2022-08-19T13:44:01;18.87;;;16.97;;
1320;SDS011;653;51.480;11.992;2022-08-19T13:46:28;21.30;;;19.30;;
1320;SDS011;653;51.480;11.992;2022-08-19T13:48:56;23.33;;;20.97;;
1320;SDS011;653;51.480;11.992;2022-08-19T13:51:23;21.63;;;19.40;;
1320;SDS011;653;51.480;11.992;2022-08-19T13:53:51;23.13;;;20.73;;
1320;SDS011;653;51.480;11.992;2022-08-19T13:56:18;23.60;;;21.20;;
1320;SDS011;653;51.480;11.992;2022-08-19T13:58:44;22.90;;;20.70;;
1320;SDS011;653;51.480;11.992;2022-08-19T14:01:12;22.80;;;20.60;;
1320;SDS011;653;51.480;11.992;2022-08-19T14:03:47;23.67;;;21.27;;
1320;SDS011;653;51.480;11.992;2022-08-19T14:06:14;24.70;;;21.47;;
1320;SDS011;653;51.480;11.992;2022-08-19T14:08:39;23.73;;;21.43;;
1320;SDS011;653;51.480;11.992;2022-08-19T14:11:07;23.10;;;20.70;;
1320;SDS011;653;51.480;11.992;2022-08-19T14:13:34;23.00;;;20.57;;
1320;SDS011;653;51.480;11.992;2022-08-19T14:16:05;23.63;;;21.30;;
1320;SDS011;653;51.480;11.992;2022-08-19T14:18:35;23.63;;;21.10;;
1320;SDS011;653;51.480;11.992;2022-08-19T14:21:01;23.37;;;21.10;;
1320;SDS011;653;51.480;11.992;2022-08-19T14:23:29;23.47;;;21.07;;
1320;SDS011;653;51.480;11.992;2022-08-19T14:26:02;24.97;;;22.47;;
1320;SDS011;653;51.480;11.992;2022-08-19T14:28:29;24.27;;;21.80;;
1320;SDS011;653;51.480;11.992;2022-08-19T14:30:59;23.97;;;21.60;;
1320;SDS011;653;51.480;11.992;2022-08-19T14:33:26;25.60;;;23.03;;
1320;SDS011;653;51.480;11.992;2022-08-19T14:35:53;23.60;;;21.27;;
1320;SDS011;653;51.480;11.992;2022-08-19T14:38:18;25.73;;;22.97;;
1320;SDS011;653;51.480;11.992;2022-08-19T14:40:45;25.40;;;22.57;;
1320;SDS011;653;51.480;11.992;2022-08-19T14:43:11;23.23;;;20.93;;
1320;SDS011;653;51.480;11.992;2022-08-19T14:45:38;22.77;;;20.43;;
1320;SDS011;653;51.480;11.992;2022-08-19T14:48:06;22.43;;;20.33;;
1320;SDS011;653;51.480;11.992;2022-08-19T14:50:32;21.50;;;19.07;;
1320;SDS011;653;51.480;11.992;2022-08-19T14:53:00;23.30;;;20.83;;
1320;SDS011;653;51.480;11.992;2022-08-19T14:55:30;21.00;;;18.90;;
1320;SDS011;653;51.480;11.992;2022-08-19T14:57:56;22.73;;;18.53;;
1320;SDS011;653;51.480;11.992;2022-08-19T15:00:23;21.33;;;19.00;;
1320;SDS011;653;51.480;11.992;2022-08-19T15:02:50;22.17;;;19.93;;
1320;SDS011;653;51.480;11.992;2022-08-19T15:05:17;20.40;;;18.37;;
1320;SDS011;653;51.480;11.992;2022-08-19T15:07:44;21.00;;;18.90;;
1320;SDS011;653;51.480;11.992;2022-08-19T15:10:11;21.97;;;19.73;;
1320;SDS011;653;51.480;11.992;2022-08-19T15:12:38;19.50;;;17.67;;
1320;SDS011;653;51.480;11.992;2022-08-19T15:15:06;21.00;;;19.10;;
1320;SDS011;653;51.480;11.992;2022-08-19T15:17:34;19.60;;;17.60;;
1320;SDS011;653;51.480;11.992;2022-08-19T15:20:05;19.50;;;17.50;;
1320;SDS011;653;51.480;11.992;2022-08-19T15:22:32;21.57;;;19.17;;